Aviation Digital Data Service (ADDS)

Output produced by METARs form (2113 UTC 02 September 2014)
found at http://aviationweather.gov/adds/metars/
 
KINT 022007Z 0220/0318 23008KT P6SM FEW060 
     FM022100 22006KT P6SM VCSH SCT050 
     FM030800 VRB03KT P6SM SCT050